ニノイ・アキノ国際空港 の過去48時間の天気

ニノイ・アキノ国際空港 (Ninoy Aquino Inter-National Airport)

現在時刻: 10/2 01:13 PST (10/1 17:13 UTC) 以下の時間は現地時間です。

過去48時間のMETAR気象情報
時間 風向 風速(m/s) 視程 気温(℃) 湿度(%) 気圧(hPa) 天気現象
2 01:00 不定 1 9000m 26 94 1008 弱い雨
2 00:00 不定 1 8000m 25 94 1009 弱いしゅう雨
1 23:00 北東 4 7000m 26 89 1009 弱い雷雨
1 22:35 北北東 6 6000m 26 89 1009 弱い雷雨
1 22:00 東北東 3 9000m 28 94 1009 弱いしゅう雨
1 21:00 2 - 28 89 1008 弱い雷雨
1 20:00 南南西 2 9000m 30 79 1007 弱いしゅう雨
1 19:00 南西 3 10km以上 30 79 1007
1 18:00 西 4 10km以上 30 79 1005
1 17:00 西 6 10km以上 31 75 1008
1 16:00 西 5 10km以上 31 75 1004
1 15:00 西 5 10km以上 32 71 1004
1 14:00 西 4 10km以上 31 75 1005
1 13:05 4 9000m 31 79 1007 弱い雷雨
1 13:00 西 3 10km以上 32 71 1006
1 12:00 2 10km以上 33 63 1006
1 11:00 不定 2 10km以上 32 71 1007
1 10:00 不定 2 10km以上 31 70 1007
1 09:00 2 10km以上 31 75 1008
1 08:00 不定 1 10km以上 30 79 1007
1 07:00 不定 1 10km以上 28 89 1007
1 06:00 2 10km以上 27 94 1006
1 05:00 北東 2 10km以上 28 89 1006
1 04:00 東北東 1 10km以上 28 84 1005
1 03:00 不定 1 9000m 28 89 1005
1 02:00 不定 1 10km以上 28 89 1005
1 01:00 不定 1 10km以上 29 79 1006
1 00:00 不定 1 10km以上 29 84 1007
30 23:00 静穏 0 10km以上 30 75 1007
30 22:00 不定 1 10km以上 30 75 1007
30 21:00 2 10km以上 30 79 1007
30 20:00 南南西 2 10km以上 30 79 1006 弱いしゅう雨
30 19:00 南西 3 10km以上 30 79 1005
30 18:00 西 4 10km以上 30 79 1005
30 17:00 西 5 10km以上 31 70 1004
30 16:00 西 4 10km以上 32 67 1004
30 15:00 西北西 5 10km以上 32 67 1004
30 14:00 西 5 10km以上 33 71 1004
30 13:00 西 5 10km以上 33 71 1005
30 12:00 西北西 4 10km以上 31 75 1006
30 11:00 西 3 10km以上 31 75 1007
30 10:00 西 5 10km以上 30 79 1007
30 09:00 北西 3 10km以上 30 75 1008
30 08:00 3 10km以上 29 79 1008
30 07:00 北北東 2 10km以上 28 84 1007
30 06:00 不定 1 10km以上 27 89 1007
30 05:00 不定 1 10km以上 27 89 1006
30 04:00 東北東 2 10km以上 27 94 1006
RPLL 011700Z VRB02KT 9000 -RA SCT025 OVC090 26/25 Q1008 NOSIG RMK A2977
RPLL 011600Z VRB02KT 8000 -SHRA FEW023CB SCT025 OVC080 25/24 Q1009 RETS TEMPO -TSRA RMK A2980 CB SE-SW
RPLL 011500Z 05008KT 020V080 7000 -TSRA SCT023CB SCT025 OVC080 26/24 Q1009 NOSIG RMK A2980 CB/TS OHD/E/W-NW
RPLL 011435Z 03012KT 6000 -TSRA BKN022CB OVC080 26/24 Q1009 TEMPO 4000 TSRA RMK A2980 CB/TS OHD/NE-SW
RPLL 011400Z 07005KT 9000 -SHRA FEW020CB SCT022 OVC080 28/27 Q1009 RETS TEMPO 7000 RMK A2980 CB LTG N SW
RPLL 011300Z 10004KT 060V120 8000-TSRA FEW022CB SCT023 OVC080 28/26 Q1008 TEMPO 6000 RMK A2977 CB N SE OHD
RPLL 011200Z 20004KT 160V230 9000 -SHRA FEW022CB SCT023 OVC080 30/26 Q1007 TEMPO 8000 -TSRA RMK A2974 CB/LTG NW-NE SW
RPLL 011100Z 23005KT 190V260 9999 FEW022CB SCT023 BKN080 30/26 Q1007 TEMPO 8000 -TSRA RMK A2974 CB/LTG N E
RPLL 011000Z 26008KT 9999 FEW022CB SCT023 BKN100 30/26 Q1005 NOSIG RMK A2968 CB N-NE SE
RPLL 010900Z 26011KT 9999 FEW023CB SCT025 BKN250 31/26 Q1008 NOSIG RMK A2968 CB NE/SE-S
RPLL 010800Z 26009KT 26009KT 230V290 9999 SCT023 BKN250 31/26 Q1004 NOSIG RMK A2965
RPLL 010700Z 26010KT 9999 SCT025 SCT250 32/26 Q1004 NOSIG RMK A2965
RPLL 010600Z 27008KT 9999 FEW023CB SCT025 BKN090 31/26 Q1005 NOSIG RMK A2968 CB E-SE SW
RPLL 010505Z 19008KT 9000 -TSRA FEW018CB SCT020 BKN300 31/27 Q1007 RMK A2974 CB E
RPLL 010500Z 27006KT 250V310 9999 FEW023CB SCT025 SCT300 32/26 Q1006 NOSIG RMK A2971 CB E SW
RPLL 010400Z 09004KT 030V200 9999 SCT025 BKN300 33/25 Q1006 NOSIG RMK A2971
RPLL 010300Z VRB04G17KT 9999 SCT025 BKN300 32/26 Q1007 NOSIG RMK A2974
RPLL 010200Z VRB03KT 9999 SCT023 SCT250 31/25 Q1007 NOSIG RMK A2974
RPLL 010100Z 10004KT 050V160 9999 SCT018 SCT250 31/26 Q1008 NOSIG RMK A2977
RPLL 010000Z VRB02KT 9999 FEW020 BKN250 30/26 Q1007 NOSIG RMK A2974
RPLL 302300Z VRB02KT 9999 FEW025 OVC250 28/26 Q1007 NOSIG RMK A2974
RPLL 302200Z 09003KT 070V140 9999 FEW023CB OVC250 27/26 Q1006 NOSIG RMK A2971 CB W
RPLL 302100Z 05003KT 9999 FEW023 28/26 Q1006 NOSIG RMK A2971
RPLL 302000Z 07002KT 9999 FEW023 28/25 Q1005 NOSIG RMK A2968
RPLL 301900Z VRB02KT 9000 FEW025 28/26 Q1005 NOSIG RMK A2968
RPLL 301800Z VRB02KT 9999 FEW025 28/26 Q1005 NOSIG RMK A2968
RPLL 301700Z VRB02KT 9999 FEW025 29/25 Q1006 NOSIG RMK A2977
RPLL 301600Z VRB01KT 9999 FEW025 29/26 Q1007 NOSIG RMK A2974
RPLL 301500Z 00000KT 9999 FEW025 BKN080 30/25 Q1007 NOSIG RMK A2974
RPLL 301400Z VRB02KT 9999 FEW023 BKN080 30/25 Q1007 NOSIG RMK A2974
RPLL 301300Z 17003KT 060V220 9999 FEW023 BKN080 30/26 Q1007 RESHRA NOSIG RMK A2974
RPLL 301200Z 21003KT 180V250 9999 -SHRA FEW022CB SCT023 BKN090 30/26 Q1006 NOSIG RMK A2971 CB/LTG E-SE/W-NW
RPLL 301100Z 22006KT 190V260 9999 FEW023CB FEW025 BKN100 30/26 Q1005 NOSIG RMK A2968 CB NW-N SE
RPLL 301000Z 26007KT 9999 FEW023CB FEW025 SCT020 30/26 Q1005 TEMPO 9000 -TSRA RMK A2968 CB NE-E
RPLL 300900Z 26010KT 9999 FEW023CB SCT023 BKN250 31/25 Q1004 TEMPO 9000 -TSRA RMK A2965 CB NE
RPLL 300800Z 27007KT 9999 FEW023CB FEW025 SCT300 32/25 Q1004 NOSIG RMK A2965 CB NE-E
RPLL 300700Z 29009KT 9999 FEW025 SCT300 32/25 Q1004 NOSIG RMK A2965
RPLL 300600Z 28009KT 9999 FEW025 SCT300 33/27 Q1004 NOSIG RMK A2965
RPLL 300500Z 28009KT 250V330 9999 FEW025 SCT300 33/27 Q1005 NOSIG RMK A2968
RPLL 300400Z 29008KT 250V340 9999 FEW025 SCT300 31/26 Q1006 NOSIG RMK A2971
RPLL 300300Z 27006KT 230V310 9999 FEW025 SCT300 31/26 Q1007 NOSIG RMK A2974
RPLL 300200Z 27009KT 9999 FEW025 30/26 Q1007 NOSIG RMK A2974
RPLL 300100Z 31006KT 270V350 9999 FEW025 30/25 Q1008 NOSIG RMK A2977
RPLL 300000Z 01006KT 340V040 9999 FEW025 SCT300 29/25 Q1008 NOSIG RMK A2977
RPLL 292300Z 02004KT 350V060 9999 FEW025 SCT250 28/25 Q1007 NOSIG RMK A2974
RPLL 292200Z VRB02KT 9999 FEW025 BKN250 27/25 Q1007 NOSIG RMK A2974
RPLL 292100Z VRB01KT 9999 FEW023 27/25 Q1006 NOSIG RMK A2971
RPLL 292000Z 07004KT 9999 FEW023 SCT100 27/26 Q1006 NOSIG RMK A2971